KZR911 UAAA-LTFM
Flight info
| Callsign | KZR911 |
|---|---|
| Flight time | N/A |
| Altitude | 30000 |
| Route | EKLAT1B EKLAT Z370 TOMGO M610 KZO/K0850F320 M610 DIVNO N161 GASBI/N0455F320 N161 LEYLA/N0455F340 N644 LAGAS N61 NOLGA UG261 TBN UM11 CRM UW71 BUK UA4 YAVRU UL615 ERSEN |
| Aircraft | A321/M-SDE3FGHIRWY/LB1 |
Departure
| Time | 2026-04-30 06:57 |
|---|---|
| Airport | Almaty International Airport (UAAA) |
Arrival
| Time | N/A |
|---|---|
| Airport | İstanbul Airport (LTFM) |
| Time | Latitude | Longitude | Altitude | Speed | Heading |
|---|---|---|---|---|---|
| 2026-04-30 06:43 | 43.34913 | 77.01341 | 2229 ft | 0 kts | 245° |
| 2026-04-30 06:47 | 43.34914 | 77.01344 | 2229 ft | 2 kts | 245° |
| 2026-04-30 06:47 | 43.34921 | 77.01365 | 2226 ft | 2 kts | 248° |
| 2026-04-30 06:48 | 43.34928 | 77.01385 | 2224 ft | 2 kts | 248° |
| 2026-04-30 06:48 | 43.34936 | 77.01405 | 2226 ft | 2 kts | 244° |
| 2026-04-30 06:48 | 43.34944 | 77.01425 | 2224 ft | 2 kts | 236° |
| 2026-04-30 06:48 | 43.34955 | 77.01443 | 2226 ft | 2 kts | 201° |
| 2026-04-30 06:49 | 43.34968 | 77.01445 | 2227 ft | 1 kts | 153° |
| 2026-04-30 06:49 | 43.34968 | 77.01444 | 2227 ft | 0 kts | 158° |
| 2026-04-30 06:51 | 43.34955 | 77.01451 | 2225 ft | 6 kts | 156° |
| 2026-04-30 06:51 | 43.34913 | 77.01478 | 2229 ft | 7 kts | 156° |
| 2026-04-30 06:52 | 43.34868 | 77.01503 | 2229 ft | 7 kts | 164° |
| 2026-04-30 06:52 | 43.34829 | 77.01534 | 2226 ft | 6 kts | 125° |
| 2026-04-30 06:52 | 43.34817 | 77.01593 | 2225 ft | 6 kts | 96° |
| 2026-04-30 06:52 | 43.34814 | 77.01655 | 2224 ft | 7 kts | 94° |
| 2026-04-30 06:53 | 43.34811 | 77.01719 | 2226 ft | 7 kts | 94° |
| 2026-04-30 06:53 | 43.34806 | 77.01804 | 2228 ft | 14 kts | 94° |
| 2026-04-30 06:53 | 43.34800 | 77.01947 | 2226 ft | 15 kts | 94° |
| 2026-04-30 06:53 | 43.34793 | 77.02090 | 2228 ft | 15 kts | 93° |
| 2026-04-30 06:54 | 43.34787 | 77.02212 | 2228 ft | 9 kts | 94° |
| 2026-04-30 06:54 | 43.34783 | 77.02287 | 2226 ft | 1 kts | 93° |
| 2026-04-30 06:54 | 43.34783 | 77.02288 | 2226 ft | 1 kts | 93° |
| 2026-04-30 06:55 | 43.34781 | 77.02325 | 2228 ft | 5 kts | 93° |
| 2026-04-30 06:55 | 43.34779 | 77.02368 | 2228 ft | 4 kts | 94° |
| 2026-04-30 06:55 | 43.34776 | 77.02435 | 2228 ft | 13 kts | 94° |
| 2026-04-30 06:55 | 43.34772 | 77.02568 | 2224 ft | 14 kts | 79° |
| 2026-04-30 06:56 | 43.34820 | 77.02687 | 2226 ft | 14 kts | 56° |
| 2026-04-30 06:56 | 43.34825 | 77.02697 | 2226 ft | 1 kts | 56° |
| 2026-04-30 06:56 | 43.34847 | 77.02741 | 2225 ft | 24 kts | 55° |
| 2026-04-30 06:56 | 43.35073 | 77.03196 | 2226 ft | 89 kts | 56° |
| 2026-04-30 06:57 | 43.35533 | 77.04124 | 2224 ft | 144 kts | 56° |
| 2026-04-30 06:57 | 43.36190 | 77.05447 | 2226 ft | 190 kts | 55° |
| 2026-04-30 06:57 | 43.36977 | 77.07041 | 2580 ft | 207 kts | 56° |
| 2026-04-30 06:57 | 43.37795 | 77.08711 | 3279 ft | 214 kts | 56° |
| 2026-04-30 06:58 | 43.38622 | 77.10416 | 3823 ft | 220 kts | 57° |
| 2026-04-30 06:58 | 43.39528 | 77.12265 | 3878 ft | 245 kts | 56° |
| 2026-04-30 06:58 | 43.40506 | 77.14243 | 4386 ft | 252 kts | 56° |
| 2026-04-30 06:58 | 43.41619 | 77.16167 | 4814 ft | 265 kts | 39° |
| 2026-04-30 06:59 | 43.43309 | 77.17175 | 5347 ft | 273 kts | 5° |
| 2026-04-30 06:59 | 43.45195 | 77.16734 | 5987 ft | 281 kts | 339° |
| 2026-04-30 06:59 | 43.46947 | 77.15498 | 6590 ft | 284 kts | 331° |
| 2026-04-30 06:59 | 43.48648 | 77.14098 | 7179 ft | 286 kts | 330° |
| 2026-04-30 07:00 | 43.50362 | 77.12682 | 7730 ft | 289 kts | 330° |
| 2026-04-30 07:00 | 43.51993 | 77.11054 | 8244 ft | 292 kts | 317° |
| 2026-04-30 07:00 | 43.53324 | 77.08931 | 8766 ft | 295 kts | 302° |
| 2026-04-30 07:00 | 43.54155 | 77.06353 | 9269 ft | 297 kts | 282° |
| 2026-04-30 07:01 | 43.54382 | 77.03522 | 9814 ft | 298 kts | 273° |
| 2026-04-30 07:01 | 43.54501 | 77.00651 | 10210 ft | 305 kts | 272° |
| 2026-04-30 07:01 | 43.54515 | 76.97654 | 10323 ft | 320 kts | 263° |
| 2026-04-30 07:01 | 43.54024 | 76.94594 | 10443 ft | 335 kts | 249° |
| 2026-04-30 07:02 | 43.52961 | 76.91675 | 10570 ft | 349 kts | 236° |
| 2026-04-30 07:02 | 43.51586 | 76.88898 | 10688 ft | 362 kts | 235° |
| 2026-04-30 07:02 | 43.50141 | 76.85981 | 10812 ft | 375 kts | 235° |
| 2026-04-30 07:02 | 43.48654 | 76.82973 | 11038 ft | 383 kts | 236° |
| 2026-04-30 07:03 | 43.47153 | 76.79926 | 11429 ft | 386 kts | 236° |
| 2026-04-30 07:03 | 43.45643 | 76.76855 | 11842 ft | 389 kts | 236° |
| 2026-04-30 07:03 | 43.44119 | 76.73762 | 12257 ft | 391 kts | 236° |
| 2026-04-30 07:03 | 43.42585 | 76.70661 | 12700 ft | 393 kts | 236° |
| 2026-04-30 07:04 | 43.41043 | 76.67546 | 13130 ft | 395 kts | 236° |
| 2026-04-30 07:04 | 43.39488 | 76.64415 | 13551 ft | 397 kts | 236° |
| 2026-04-30 07:04 | 43.37927 | 76.61273 | 13953 ft | 399 kts | 236° |
| 2026-04-30 07:04 | 43.36360 | 76.58114 | 14320 ft | 401 kts | 236° |
| 2026-04-30 07:05 | 43.33193 | 76.51743 | 15043 ft | 406 kts | 236° |
| 2026-04-30 07:05 | 43.31597 | 76.48540 | 15390 ft | 408 kts | 236° |
| 2026-04-30 07:05 | 43.29997 | 76.45310 | 15740 ft | 410 kts | 238° |
| 2026-04-30 07:06 | 43.28670 | 76.41836 | 16075 ft | 412 kts | 248° |
| 2026-04-30 07:06 | 43.27831 | 76.38061 | 16409 ft | 414 kts | 259° |
| 2026-04-30 07:06 | 43.27508 | 76.34137 | 16736 ft | 415 kts | 269° |
| 2026-04-30 07:06 | 43.27514 | 76.30170 | 17062 ft | 417 kts | 270° |
| 2026-04-30 07:07 | 43.27518 | 76.26179 | 17401 ft | 419 kts | 270° |
| 2026-04-30 07:07 | 43.27512 | 76.22164 | 17732 ft | 421 kts | 270° |
| 2026-04-30 07:07 | 43.27498 | 76.18185 | 18056 ft | 423 kts | 270° |
| 2026-04-30 07:07 | 43.27482 | 76.14133 | 18367 ft | 425 kts | 270° |
| 2026-04-30 07:08 | 43.27464 | 76.10073 | 18668 ft | 426 kts | 270° |
| 2026-04-30 07:08 | 43.27448 | 76.05994 | 18971 ft | 428 kts | 270° |
| 2026-04-30 07:08 | 43.27598 | 76.01910 | 19261 ft | 429 kts | 278° |
| 2026-04-30 07:08 | 43.28221 | 75.97913 | 19557 ft | 429 kts | 287° |
| 2026-04-30 07:09 | 43.29082 | 75.93983 | 19845 ft | 431 kts | 287° |
| 2026-04-30 07:09 | 43.29939 | 75.90027 | 20160 ft | 432 kts | 287° |
| 2026-04-30 07:09 | 43.30788 | 75.86066 | 20457 ft | 433 kts | 286° |
| 2026-04-30 07:09 | 43.31632 | 75.82088 | 20743 ft | 435 kts | 286° |
| 2026-04-30 07:10 | 43.32474 | 75.78097 | 21033 ft | 436 kts | 286° |
| 2026-04-30 07:10 | 43.33319 | 75.74082 | 21301 ft | 437 kts | 286° |
| 2026-04-30 07:10 | 43.34171 | 75.70062 | 21577 ft | 439 kts | 286° |
| 2026-04-30 07:10 | 43.35029 | 75.66031 | 21856 ft | 440 kts | 286° |
| 2026-04-30 07:11 | 43.35890 | 75.61990 | 22120 ft | 442 kts | 286° |
| 2026-04-30 07:11 | 43.36742 | 75.57981 | 22372 ft | 443 kts | 286° |
| 2026-04-30 07:11 | 43.37608 | 75.53893 | 22639 ft | 445 kts | 286° |
| 2026-04-30 07:11 | 43.38437 | 75.49787 | 22886 ft | 446 kts | 285° |
| 2026-04-30 07:12 | 43.39220 | 75.45651 | 23152 ft | 447 kts | 284° |
| 2026-04-30 07:12 | 43.39974 | 75.41496 | 23413 ft | 449 kts | 284° |
| 2026-04-30 07:12 | 43.40721 | 75.37309 | 23631 ft | 450 kts | 284° |
| 2026-04-30 07:12 | 43.41472 | 75.33123 | 23831 ft | 452 kts | 284° |
| 2026-04-30 07:13 | 43.42234 | 75.28916 | 24044 ft | 453 kts | 284° |
| 2026-04-30 07:13 | 43.43004 | 75.24708 | 24248 ft | 455 kts | 284° |
| 2026-04-30 07:13 | 43.43785 | 75.20482 | 24445 ft | 456 kts | 284° |
| 2026-04-30 07:13 | 43.44570 | 75.16247 | 24632 ft | 457 kts | 284° |
| 2026-04-30 07:14 | 43.45359 | 75.11993 | 24826 ft | 458 kts | 284° |
| 2026-04-30 07:14 | 43.46144 | 75.07732 | 25005 ft | 459 kts | 284° |
| 2026-04-30 07:14 | 43.46915 | 75.03513 | 25184 ft | 460 kts | 284° |
| 2026-04-30 07:14 | 43.47691 | 74.99237 | 25353 ft | 461 kts | 284° |
| 2026-04-30 07:15 | 43.48467 | 74.94944 | 25504 ft | 463 kts | 284° |
| 2026-04-30 07:15 | 43.49246 | 74.90634 | 25649 ft | 464 kts | 283° |
| 2026-04-30 07:15 | 43.50026 | 74.86320 | 25850 ft | 464 kts | 283° |
| 2026-04-30 07:15 | 43.50805 | 74.82011 | 26085 ft | 463 kts | 283° |
| 2026-04-30 07:16 | 43.51582 | 74.77710 | 26305 ft | 463 kts | 283° |
| 2026-04-30 07:16 | 43.52356 | 74.73410 | 26534 ft | 462 kts | 283° |
| 2026-04-30 07:16 | 43.53126 | 74.69116 | 26753 ft | 461 kts | 283° |
| 2026-04-30 07:16 | 43.53645 | 74.66215 | 26908 ft | 461 kts | 283° |
| 2026-04-30 07:17 | 43.54408 | 74.61931 | 27125 ft | 460 kts | 283° |
| 2026-04-30 07:17 | 43.55417 | 74.56255 | 27384 ft | 460 kts | 283° |
| 2026-04-30 07:17 | 43.56692 | 74.49080 | 27729 ft | 459 kts | 283° |
| 2026-04-30 07:18 | 43.57442 | 74.44852 | 27935 ft | 459 kts | 283° |
| 2026-04-30 07:18 | 43.58197 | 74.40575 | 28137 ft | 459 kts | 283° |
| 2026-04-30 07:18 | 43.58952 | 74.36294 | 28335 ft | 459 kts | 283° |
| 2026-04-30 07:18 | 43.59704 | 74.32011 | 28527 ft | 459 kts | 283° |
| 2026-04-30 07:19 | 43.60450 | 74.27735 | 28716 ft | 459 kts | 283° |
| 2026-04-30 07:19 | 43.61195 | 74.23457 | 28921 ft | 458 kts | 283° |
| 2026-04-30 07:19 | 43.61941 | 74.19181 | 29103 ft | 458 kts | 283° |
| 2026-04-30 07:19 | 43.62688 | 74.14908 | 29313 ft | 458 kts | 283° |
| 2026-04-30 07:20 | 43.63435 | 74.10640 | 29517 ft | 457 kts | 283° |
| 2026-04-30 07:20 | 43.64183 | 74.06375 | 29712 ft | 457 kts | 283° |
| 2026-04-30 07:20 | 43.64929 | 74.02105 | 29873 ft | 457 kts | 283° |
| 2026-04-30 07:21 | 43.66403 | 73.93576 | 29885 ft | 456 kts | 283° |
| 2026-04-30 07:21 | 43.67867 | 73.85050 | 29892 ft | 456 kts | 283° |
| 2026-04-30 07:22 | 43.69449 | 73.72139 | 29886 ft | 455 kts | 268° |
| 2026-04-30 07:22 | 43.69025 | 73.63407 | 29896 ft | 455 kts | 265° |
| 2026-04-30 07:23 | 43.68582 | 73.54679 | 29885 ft | 456 kts | 265° |
| 2026-04-30 07:23 | 43.68144 | 73.45937 | 29894 ft | 456 kts | 265° |
| 2026-04-30 07:24 | 43.67685 | 73.37216 | 29905 ft | 456 kts | 265° |
| 2026-04-30 07:24 | 43.67212 | 73.28474 | 29909 ft | 456 kts | 265° |
| 2026-04-30 07:25 | 43.66735 | 73.19752 | 29912 ft | 456 kts | 265° |
| 2026-04-30 07:25 | 43.66255 | 73.11026 | 29915 ft | 456 kts | 265° |
| 2026-04-30 07:26 | 43.65768 | 73.02305 | 29915 ft | 455 kts | 264° |
| 2026-04-30 07:26 | 43.65277 | 72.93633 | 29915 ft | 455 kts | 264° |
| 2026-04-30 07:27 | 43.64774 | 72.84917 | 29915 ft | 454 kts | 264° |
| 2026-04-30 07:27 | 43.64270 | 72.76225 | 29914 ft | 454 kts | 264° |
| 2026-04-30 07:28 | 43.63763 | 72.67538 | 29913 ft | 453 kts | 264° |
| 2026-04-30 07:28 | 43.63239 | 72.58877 | 29911 ft | 452 kts | 264° |
| 2026-04-30 07:29 | 43.62715 | 72.50225 | 29906 ft | 452 kts | 264° |
| 2026-04-30 07:29 | 43.62188 | 72.41565 | 29913 ft | 451 kts | 264° |
| 2026-04-30 07:30 | 43.61384 | 72.28677 | 29909 ft | 450 kts | 264° |
| 2026-04-30 07:31 | 43.60838 | 72.20074 | 29909 ft | 450 kts | 264° |
| 2026-04-30 07:31 | 43.60291 | 72.11475 | 29899 ft | 449 kts | 264° |
| 2026-04-30 07:32 | 43.59737 | 72.02887 | 29893 ft | 449 kts | 264° |
| 2026-04-30 07:32 | 43.59178 | 71.94296 | 29893 ft | 449 kts | 263° |
| 2026-04-30 07:33 | 43.58609 | 71.85728 | 29907 ft | 449 kts | 263° |
| 2026-04-30 07:33 | 43.58039 | 71.77208 | 29909 ft | 449 kts | 263° |
| 2026-04-30 07:34 | 43.57459 | 71.68618 | 29909 ft | 449 kts | 263° |
| 2026-04-30 07:34 | 43.56872 | 71.60033 | 29897 ft | 449 kts | 263° |
| 2026-04-30 07:35 | 43.56280 | 71.51516 | 29909 ft | 450 kts | 263° |
| 2026-04-30 07:35 | 43.55674 | 71.42903 | 29916 ft | 450 kts | 263° |
| 2026-04-30 07:36 | 43.55062 | 71.34339 | 29922 ft | 450 kts | 263° |
| 2026-04-30 07:36 | 43.54448 | 71.25747 | 29924 ft | 450 kts | 263° |
| 2026-04-30 07:37 | 43.53831 | 71.17148 | 29918 ft | 450 kts | 263° |
| 2026-04-30 07:37 | 43.53208 | 71.08592 | 29922 ft | 451 kts | 263° |
| 2026-04-30 07:38 | 43.52572 | 70.99992 | 29915 ft | 451 kts | 263° |
| 2026-04-30 07:38 | 43.51935 | 70.91419 | 29925 ft | 451 kts | 264° |
| 2026-04-30 07:39 | 43.52439 | 70.82752 | 29912 ft | 455 kts | 283° |
| 2026-04-30 07:39 | 43.54442 | 70.74495 | 29918 ft | 456 kts | 287° |
| 2026-04-30 07:40 | 43.56518 | 70.66218 | 29910 ft | 457 kts | 287° |
| 2026-04-30 07:40 | 43.58576 | 70.57921 | 29911 ft | 457 kts | 287° |
| 2026-04-30 07:41 | 43.60632 | 70.49613 | 29913 ft | 457 kts | 287° |
| 2026-04-30 07:41 | 43.62689 | 70.41313 | 29912 ft | 457 kts | 287° |
| 2026-04-30 07:42 | 43.64744 | 70.32992 | 29922 ft | 458 kts | 287° |
| 2026-04-30 07:42 | 43.66791 | 70.24669 | 29920 ft | 458 kts | 287° |
| 2026-04-30 07:43 | 43.68832 | 70.16332 | 29921 ft | 458 kts | 286° |
| 2026-04-30 07:43 | 43.70864 | 70.08017 | 29925 ft | 459 kts | 286° |
| 2026-04-30 07:44 | 43.72899 | 69.99640 | 29927 ft | 459 kts | 286° |
| 2026-04-30 07:44 | 43.74929 | 69.91271 | 29923 ft | 459 kts | 286° |
| 2026-04-30 07:45 | 43.76951 | 69.82902 | 29921 ft | 459 kts | 286° |
| 2026-04-30 07:45 | 43.78963 | 69.74525 | 29918 ft | 459 kts | 286° |
| 2026-04-30 07:46 | 43.80960 | 69.66183 | 29913 ft | 459 kts | 286° |
| 2026-04-30 07:46 | 43.82969 | 69.57783 | 29920 ft | 460 kts | 286° |
| 2026-04-30 07:47 | 43.84974 | 69.49366 | 29921 ft | 460 kts | 286° |
| 2026-04-30 07:47 | 43.86972 | 69.40933 | 29922 ft | 460 kts | 286° |
| 2026-04-30 07:48 | 43.88959 | 69.32480 | 29923 ft | 461 kts | 286° |
| 2026-04-30 07:48 | 43.90947 | 69.24021 | 29921 ft | 462 kts | 286° |
| 2026-04-30 07:49 | 43.92966 | 69.15557 | 29923 ft | 462 kts | 287° |
| 2026-04-30 07:49 | 43.95038 | 69.07168 | 29919 ft | 462 kts | 287° |
| 2026-04-30 07:50 | 43.97121 | 68.98731 | 29914 ft | 462 kts | 287° |
| 2026-04-30 07:50 | 43.99177 | 68.90265 | 29915 ft | 463 kts | 286° |
| 2026-04-30 07:51 | 44.01224 | 68.81779 | 29914 ft | 464 kts | 286° |
| 2026-04-30 07:51 | 44.03268 | 68.73255 | 29918 ft | 465 kts | 286° |
| 2026-04-30 07:52 | 44.05256 | 68.64709 | 29923 ft | 465 kts | 285° |
| 2026-04-30 07:52 | 44.07208 | 68.56126 | 29927 ft | 466 kts | 285° |
| 2026-04-30 07:53 | 44.09162 | 68.47534 | 29925 ft | 466 kts | 285° |
| 2026-04-30 07:53 | 44.11121 | 68.38946 | 29930 ft | 466 kts | 285° |
| 2026-04-30 07:54 | 44.13084 | 68.30351 | 29933 ft | 466 kts | 285° |
| 2026-04-30 07:54 | 44.15038 | 68.21746 | 29927 ft | 466 kts | 285° |
| 2026-04-30 07:55 | 44.16960 | 68.13137 | 29932 ft | 465 kts | 284° |
| 2026-04-30 07:55 | 44.18865 | 68.04525 | 29925 ft | 465 kts | 284° |
| 2026-04-30 07:56 | 44.20776 | 67.95914 | 29926 ft | 465 kts | 285° |
| 2026-04-30 07:56 | 44.22683 | 67.87301 | 29919 ft | 465 kts | 285° |
| 2026-04-30 07:57 | 44.24576 | 67.78686 | 29914 ft | 465 kts | 285° |
| 2026-04-30 07:57 | 44.26463 | 67.70067 | 29917 ft | 464 kts | 285° |
| 2026-04-30 07:58 | 44.28346 | 67.61452 | 29909 ft | 464 kts | 284° |
| 2026-04-30 07:58 | 44.30210 | 67.52848 | 29914 ft | 463 kts | 285° |
| 2026-04-30 07:59 | 44.32081 | 67.44234 | 29907 ft | 463 kts | 285° |
| 2026-04-30 07:59 | 44.33650 | 67.37030 | 29905 ft | 462 kts | 285° |
| 2026-04-30 08:00 | 44.36427 | 67.24200 | 29896 ft | 461 kts | 285° |
| 2026-04-30 08:00 | 44.38279 | 67.15614 | 29897 ft | 461 kts | 285° |
| 2026-04-30 08:01 | 44.40117 | 67.07035 | 29890 ft | 460 kts | 285° |
| 2026-04-30 08:01 | 44.41938 | 66.98461 | 29889 ft | 460 kts | 285° |
| 2026-04-30 08:02 | 44.44655 | 66.85609 | 29887 ft | 459 kts | 285° |
| 2026-04-30 08:03 | 44.48267 | 66.68520 | 29882 ft | 457 kts | 285° |
| 2026-04-30 08:04 | 44.50048 | 66.59985 | 29879 ft | 456 kts | 285° |
| 2026-04-30 08:04 | 44.51786 | 66.51446 | 29878 ft | 455 kts | 284° |
| 2026-04-30 08:05 | 44.53423 | 66.42874 | 29875 ft | 455 kts | 284° |
| 2026-04-30 08:05 | 44.55028 | 66.34302 | 29882 ft | 455 kts | 284° |
| 2026-04-30 08:06 | 44.56656 | 66.25739 | 29884 ft | 454 kts | 284° |
| 2026-04-30 08:06 | 44.58283 | 66.17183 | 29882 ft | 454 kts | 284° |
| 2026-04-30 08:07 | 44.59900 | 66.08626 | 29882 ft | 453 kts | 284° |
| 2026-04-30 08:07 | 44.61501 | 66.00074 | 29883 ft | 453 kts | 284° |
| 2026-04-30 08:08 | 44.63093 | 65.91521 | 29884 ft | 452 kts | 284° |
| 2026-04-30 08:08 | 44.64683 | 65.82980 | 29882 ft | 452 kts | 284° |
| 2026-04-30 08:09 | 44.66274 | 65.74437 | 29883 ft | 452 kts | 284° |
| 2026-04-30 08:09 | 44.67844 | 65.65900 | 29883 ft | 451 kts | 284° |
| 2026-04-30 08:10 | 44.69405 | 65.57347 | 29874 ft | 451 kts | 284° |
| 2026-04-30 08:10 | 44.70985 | 65.48804 | 29871 ft | 452 kts | 284° |
| 2026-04-30 08:11 | 44.72604 | 65.40263 | 29869 ft | 452 kts | 284° |
| 2026-04-30 08:11 | 44.74221 | 65.31719 | 29858 ft | 452 kts | 284° |
| 2026-04-30 08:12 | 44.75820 | 65.23160 | 29852 ft | 453 kts | 284° |
| 2026-04-30 08:12 | 44.77407 | 65.14580 | 29847 ft | 453 kts | 284° |
| 2026-04-30 08:13 | 44.78989 | 65.05984 | 29854 ft | 454 kts | 283° |
| 2026-04-30 08:13 | 44.80576 | 64.97374 | 29854 ft | 455 kts | 283° |
| 2026-04-30 08:14 | 44.82159 | 64.88740 | 29857 ft | 455 kts | 283° |
| 2026-04-30 08:14 | 44.83696 | 64.80084 | 29856 ft | 456 kts | 282° |
| 2026-04-30 08:15 | 44.85182 | 64.71404 | 29859 ft | 456 kts | 282° |
| 2026-04-30 08:15 | 44.86663 | 64.62712 | 29865 ft | 456 kts | 282° |
| 2026-04-30 08:16 | 44.88122 | 64.53995 | 29869 ft | 457 kts | 281° |
| 2026-04-30 08:16 | 44.89520 | 64.45248 | 29874 ft | 457 kts | 280° |
| 2026-04-30 08:17 | 44.90904 | 64.36496 | 29869 ft | 458 kts | 280° |
| 2026-04-30 08:17 | 44.92290 | 64.27725 | 29876 ft | 458 kts | 280° |
| 2026-04-30 08:18 | 44.93680 | 64.18946 | 29879 ft | 458 kts | 280° |
| 2026-04-30 08:18 | 44.95072 | 64.10161 | 29878 ft | 459 kts | 280° |
| 2026-04-30 08:19 | 44.96457 | 64.01369 | 29886 ft | 459 kts | 279° |
| 2026-04-30 08:19 | 44.97831 | 63.92569 | 29885 ft | 459 kts | 279° |
| 2026-04-30 08:20 | 44.99194 | 63.83765 | 29888 ft | 459 kts | 279° |
| 2026-04-30 08:20 | 45.00556 | 63.74952 | 29888 ft | 459 kts | 279° |
| 2026-04-30 08:21 | 45.01907 | 63.66143 | 29888 ft | 459 kts | 279° |
| 2026-04-30 08:21 | 45.03241 | 63.57325 | 29891 ft | 459 kts | 279° |
| 2026-04-30 08:22 | 45.04574 | 63.48514 | 29893 ft | 458 kts | 279° |
| 2026-04-30 08:22 | 45.05910 | 63.39704 | 29902 ft | 458 kts | 279° |
| 2026-04-30 08:23 | 45.07235 | 63.30905 | 29907 ft | 457 kts | 278° |
| 2026-04-30 08:23 | 45.08543 | 63.22111 | 29907 ft | 456 kts | 278° |
| 2026-04-30 08:24 | 45.09846 | 63.13334 | 29905 ft | 455 kts | 278° |
| 2026-04-30 08:24 | 45.11141 | 63.04567 | 29902 ft | 454 kts | 278° |
| 2026-04-30 08:25 | 45.12420 | 62.95814 | 29911 ft | 453 kts | 278° |
| 2026-04-30 08:25 | 45.13694 | 62.87080 | 29918 ft | 452 kts | 278° |
| 2026-04-30 08:26 | 45.14962 | 62.78357 | 29914 ft | 452 kts | 278° |
| 2026-04-30 08:26 | 45.16217 | 62.69655 | 29911 ft | 451 kts | 278° |
| 2026-04-30 08:27 | 45.17463 | 62.60954 | 29913 ft | 450 kts | 278° |
| 2026-04-30 08:27 | 45.18698 | 62.52266 | 29916 ft | 450 kts | 278° |
| 2026-04-30 08:28 | 45.19936 | 62.43574 | 29917 ft | 449 kts | 278° |
| 2026-04-30 08:28 | 45.21169 | 62.34894 | 29919 ft | 449 kts | 277° |
| 2026-04-30 08:29 | 45.22391 | 62.26202 | 29917 ft | 449 kts | 277° |
| 2026-04-30 08:29 | 45.23600 | 62.17522 | 29920 ft | 449 kts | 277° |
| 2026-04-30 08:30 | 45.24801 | 62.08834 | 29916 ft | 449 kts | 277° |
| 2026-04-30 08:30 | 45.26001 | 62.00136 | 29920 ft | 449 kts | 277° |
| 2026-04-30 08:31 | 45.27194 | 61.91435 | 29917 ft | 449 kts | 277° |
| 2026-04-30 08:31 | 45.28381 | 61.82733 | 29907 ft | 449 kts | 276° |
| 2026-04-30 08:32 | 45.29559 | 61.74018 | 29915 ft | 450 kts | 276° |
| 2026-04-30 08:32 | 45.30733 | 61.65283 | 29898 ft | 450 kts | 276° |
| 2026-04-30 08:33 | 45.31896 | 61.56535 | 29896 ft | 451 kts | 276° |
| 2026-04-30 08:33 | 45.33055 | 61.47776 | 29904 ft | 452 kts | 276° |
| 2026-04-30 08:34 | 45.34220 | 61.38994 | 29906 ft | 452 kts | 276° |
| 2026-04-30 08:34 | 45.35373 | 61.30196 | 29908 ft | 453 kts | 276° |
| 2026-04-30 08:35 | 45.36516 | 61.21393 | 29924 ft | 453 kts | 276° |
| 2026-04-30 08:35 | 45.37662 | 61.12584 | 29925 ft | 453 kts | 276° |
| 2026-04-30 08:36 | 45.38795 | 61.03767 | 29933 ft | 453 kts | 275° |
| 2026-04-30 08:36 | 45.39912 | 60.94967 | 29932 ft | 452 kts | 275° |
| 2026-04-30 08:37 | 45.41024 | 60.86164 | 29935 ft | 451 kts | 275° |
| 2026-04-30 08:37 | 45.41942 | 60.78859 | 29936 ft | 451 kts | 275° |
| 2026-04-30 08:38 | 45.43013 | 60.70072 | 29934 ft | 450 kts | 274° |
| 2026-04-30 08:38 | 45.44014 | 60.61286 | 29936 ft | 449 kts | 274° |
| 2026-04-30 08:39 | 45.45001 | 60.52503 | 29937 ft | 449 kts | 274° |
| 2026-04-30 08:39 | 45.45998 | 60.43711 | 29940 ft | 449 kts | 274° |
| 2026-04-30 08:40 | 45.46994 | 60.34930 | 29939 ft | 449 kts | 274° |
| 2026-04-30 08:40 | 45.47021 | 60.34690 | 29939 ft | 449 kts | 274° |